Time;durP1;ratioP1;P1;durP2;ratioP2;P2;SDS_P1;SDS_P2;PMS_P1;PMS_P2;Temp;Humidity;BMP_temperature;BMP_pressure;BME280_temperature;BME280_humidity;BME280_pressure;Samples;Min_cycle;Max_cycle;Signal;HPM_P1;HPM_P2
2023/02/07 00:00:43;;;;;;;22.38;6.03;;;0.30;99.90;;;;;;5095603;28;20024;-76
2023/02/07 00:03:09;;;;;;;24.63;6.43;;;0.30;99.90;;;;;;5096290;28;20383;-76
2023/02/07 00:05:37;;;;;;;16.27;6.25;;;0.20;99.90;;;;;;5095678;28;20390;-76
2023/02/07 00:08:05;;;;;;;23.38;6.75;;;0.00;99.90;;;;;;5095989;28;20024;-76
2023/02/07 00:10:31;;;;;;;19.30;6.30;;;0.10;99.90;;;;;;5095517;28;20062;-76
2023/02/07 00:12:57;;;;;;;15.32;5.65;;;0.10;99.90;;;;;;5095544;28;20020;-76
2023/02/07 00:15:23;;;;;;;23.85;7.22;;;0.00;99.90;;;;;;5094216;28;20020;-76
2023/02/07 00:17:49;;;;;;;26.52;6.18;;;0.00;99.90;;;;;;5095222;28;20425;-76
2023/02/07 00:20:16;;;;;;;18.85;5.18;;;0.00;99.90;;;;;;5093662;28;20064;-77
2023/02/07 00:22:43;;;;;;;23.60;5.75;;;-0.10;99.90;;;;;;5093952;28;20012;-77
2023/02/07 00:25:09;;;;;;;16.42;5.15;;;0.90;99.90;;;;;;5095303;28;20020;-76
2023/02/07 00:27:35;;;;;;;18.70;5.40;;;-0.10;99.90;;;;;;5095136;28;20107;-76
2023/02/07 00:30:00;;;;;;;23.25;6.68;;;-0.20;99.90;;;;;;5095041;28;20059;-76
2023/02/07 00:32:30;;;;;;;20.35;5.47;;;-0.20;99.90;;;;;;5095519;28;20028;-77
2023/02/07 00:34:57;;;;;;;15.40;4.93;;;-0.20;99.90;;;;;;5095214;28;20031;-76
2023/02/07 00:37:23;;;;;;;15.43;5.28;;;-0.20;99.90;;;;;;5095117;28;20055;-76
2023/02/07 00:39:49;;;;;;;16.88;5.05;;;-0.30;99.90;;;;;;5093653;28;20032;-77
2023/02/07 00:42:15;;;;;;;16.75;5.70;;;-0.30;99.90;;;;;;5094723;28;20027;-76
2023/02/07 00:44:40;;;;;;;19.45;4.65;;;-0.30;99.90;;;;;;5094784;28;20012;-76
2023/02/07 00:47:06;;;;;;;18.13;5.70;;;-0.30;99.90;;;;;;5093882;28;20024;-76
2023/02/07 00:49:32;;;;;;;18.50;5.82;;;-0.30;99.90;;;;;;5094722;28;20093;-76
2023/02/07 00:51:57;;;;;;;15.32;5.40;;;-0.30;99.90;;;;;;5094498;28;20020;-76
2023/02/07 00:54:23;;;;;;;16.23;5.07;;;-0.30;99.90;;;;;;5095184;28;20028;-77
2023/02/07 00:56:51;;;;;;;15.15;4.68;;;-0.30;99.90;;;;;;5093286;28;20016;-77
2023/02/07 00:59:18;;;;;;;10.23;4.78;;;-0.30;99.90;;;;;;5094569;28;20089;-77
2023/02/07 01:01:43;;;;;;;24.23;6.13;;;-0.30;99.90;;;;;;5094317;28;20487;-76
2023/02/07 01:04:09;;;;;;;21.38;5.32;;;-0.20;99.90;;;;;;5094406;28;20019;-76
2023/02/07 01:06:35;;;;;;;20.45;5.65;;;-0.20;99.90;;;;;;5094557;28;20483;-75
2023/02/07 01:09:03;;;;;;;22.73;5.45;;;-0.20;99.90;;;;;;5093040;28;20024;-77
2023/02/07 01:11:32;;;;;;;13.50;3.90;;;-0.20;99.90;;;;;;5092898;28;20410;-76
2023/02/07 01:13:59;;;;;;;19.60;4.63;;;-0.10;99.90;;;;;;5094360;28;20767;-76
2023/02/07 01:16:38;;;;;;;19.23;5.30;;;-0.20;99.90;;;;;;5094250;28;20069;-77
2023/02/07 01:19:09;;;;;;;8.00;3.47;;;-0.20;99.90;;;;;;5093105;28;20027;-76
2023/02/07 01:21:38;;;;;;;18.10;4.70;;;-0.20;99.90;;;;;;5094717;28;20163;-76
2023/02/07 01:24:04;;;;;;;;;;;-0.10;99.90;;;;;;5094637;28;20383;-77
2023/02/07 01:26:29;;;;;;;16.48;4.03;;;-0.10;99.90;;;;;;5094058;28;19904;-76
2023/02/07 01:29:05;;;;;;;13.10;3.90;;;-0.10;99.90;;;;;;5092354;28;20023;-77
2023/02/07 01:31:31;;;;;;;11.38;3.72;;;-0.10;99.90;;;;;;5092745;28;20115;-77
2023/02/07 01:33:59;;;;;;;12.48;2.97;;;-0.10;99.90;;;;;;5093981;28;20048;-77
2023/02/07 01:36:28;;;;;;;13.73;3.15;;;-0.10;99.90;;;;;;5093957;28;20027;-76
2023/02/07 01:39:02;;;;;;;18.15;4.18;;;-0.10;99.90;;;;;;5093906;28;20031;-76
2023/02/07 01:41:28;;;;;;;11.13;3.60;;;-0.10;99.90;;;;;;5093693;28;20024;-76
2023/02/07 01:44:27;;;;;;;15.18;3.80;;;-0.10;99.90;;;;;;5092416;28;20020;-76
2023/02/07 01:46:54;;;;;;;18.83;4.00;;;-0.10;99.90;;;;;;5093526;28;20032;-76
2023/02/07 01:49:28;;;;;;;15.45;3.80;;;-0.10;99.90;;;;;;5092320;28;20433;-76
2023/02/07 01:52:03;;;;;;;14.32;4.00;;;-0.20;99.90;;;;;;5093588;28;20479;-76
2023/02/07 01:54:32;;;;;;;9.95;3.20;;;-0.20;99.90;;;;;;5092356;28;20020;-75
2023/02/07 01:57:04;;;;;;;15.43;4.75;;;-0.20;99.90;;;;;;5092468;28;20016;-77
2023/02/07 01:59:34;;;;;;;14.77;4.45;;;-0.20;99.90;;;;;;5092231;28;20020;-76
2023/02/07 02:02:03;;;;;;;14.30;4.93;;;-0.20;99.90;;;;;;5093472;28;20024;-76
2023/02/07 02:04:29;;;;;;;18.85;5.15;;;0.00;99.90;;;;;;5093564;28;20409;-75
2023/02/07 02:06:55;;;;;;;11.55;4.35;;;-0.20;99.90;;;;;;5093362;28;20030;-75
2023/02/07 02:09:21;;;;;;;11.63;4.93;;;-0.30;99.90;;;;;;5091688;28;20024;-76
2023/02/07 02:12:06;;;;;;;17.23;4.50;;;-0.30;99.90;;;;;;5093639;28;20026;-76
2023/02/07 02:14:41;;;;;;;18.73;3.97;;;-0.40;99.90;;;;;;5092039;28;20039;-76
2023/02/07 02:17:35;;;;;;;15.05;4.15;;;-0.40;99.90;;;;;;5093984;28;20035;-76
2023/02/07 02:23:13;;;;;;;14.85;4.53;;;-0.40;99.90;;;;;;5032152;28;20042;-76
2023/02/07 02:26:10;;;;;;;18.63;4.72;;;-0.50;99.90;;;;;;5015477;28;20025;-76
2023/02/07 02:28:38;;;;;;;13.68;4.28;;;-0.40;99.90;;;;;;5033412;28;20096;-76
2023/02/07 02:31:10;;;;;;;20.85;4.55;;;-0.40;99.90;;;;;;5015598;28;20034;-77
2023/02/07 02:33:35;;;;;;;15.15;4.00;;;-0.30;99.90;;;;;;5015513;28;20030;-76
2023/02/07 02:36:21;;;;;;;18.83;4.57;;;-0.30;99.90;;;;;;5015653;28;20041;-78
2023/02/07 02:39:09;;;;;;;11.88;4.30;;;-0.30;99.90;;;;;;5019204;28;20561;-77
2023/02/07 02:41:54;;;;;;;10.80;3.40;;;-0.40;99.90;;;;;;5034409;28;20034;-77
2023/02/07 02:44:47;;;;;;;20.50;5.72;;;-0.40;99.90;;;;;;5038681;28;20439;-77
2023/02/07 02:47:13;;;;;;;18.05;5.07;;;-0.50;99.90;;;;;;5019612;28;20021;-75
2023/02/07 02:49:42;;;;;;;15.52;4.15;;;-0.50;99.90;;;;;;5019282;28;20025;-77
2023/02/07 02:52:08;;;;;;;12.60;4.75;;;-0.60;99.90;;;;;;5019935;28;20021;-77
2023/02/07 02:54:36;;;;;;;17.15;4.75;;;-0.60;99.90;;;;;;5037664;28;20537;-76
2023/02/07 02:57:20;;;;;;;19.48;5.18;;;-0.70;99.90;;;;;;5019691;28;20033;-76
2023/02/07 03:00:20;;;;;;;11.18;4.50;;;-0.70;99.90;;;;;;5037393;28;20033;-76
2023/02/07 03:02:55;;;;;;;20.48;4.45;;;-0.80;99.90;;;;;;5037125;28;20124;-76
2023/02/07 03:05:24;;;;;;;12.30;4.13;;;-0.80;99.90;;;;;;5019576;28;20029;-77
2023/02/07 03:07:49;;;;;;;;;;;-0.80;99.90;;;;;;5020085;28;20120;-76
2023/02/07 03:10:52;;;;;;;15.63;4.13;;;-0.80;99.90;;;;;;5037669;28;19955;-76
2023/02/07 03:13:53;;;;;;;12.50;3.75;;;-0.80;99.90;;;;;;5037088;28;20076;-77
2023/02/07 03:16:54;;;;;;;15.82;3.85;;;-0.80;99.90;;;;;;5007812;28;20095;-76
2023/02/07 03:19:39;;;;;;;17.67;4.25;;;-0.90;99.90;;;;;;5009717;28;20038;-77
2023/02/07 03:22:10;;;;;;;12.60;3.63;;;-0.90;99.90;;;;;;5037995;28;20055;-77
2023/02/07 03:24:40;;;;;;;12.65;3.88;;;-1.00;99.90;;;;;;5019810;28;20496;-77
2023/02/07 03:27:08;;;;;;;18.35;4.40;;;-1.00;99.90;;;;;;5037055;28;20024;-78
2023/02/07 03:29:36;;;;;;;10.32;3.88;;;-1.00;99.90;;;;;;5037644;28;20435;-76
2023/02/07 03:32:05;;;;;;;15.40;4.18;;;-1.00;99.90;;;;;;5019634;28;20013;-76
2023/02/07 03:35:04;;;;;;;22.13;4.20;;;-1.00;99.90;;;;;;5019126;28;20021;-75
2023/02/07 03:37:35;;;;;;;15.57;4.72;;;-0.90;99.90;;;;;;5021881;28;20033;-76
2023/02/07 03:40:03;;;;;;;11.35;3.72;;;-0.90;99.90;;;;;;5035929;28;20037;-76
2023/02/07 03:42:37;;;;;;;16.05;3.72;;;-0.90;99.90;;;;;;5019122;28;20033;-76
2023/02/07 03:45:06;;;;;;;12.65;3.53;;;-1.00;99.90;;;;;;5038272;28;20036;-77
2023/02/07 03:47:31;;;;;;;;;;;-1.00;99.90;;;;;;5019201;28;20018;-75
2023/02/07 03:49:57;;;;;;;15.82;4.88;;;-1.10;99.90;;;;;;5018667;28;20280;-77
2023/02/07 03:52:23;;;;;;;15.38;5.43;;;-1.10;99.90;;;;;;5018381;28;20069;-75
2023/02/07 03:54:48;;;;;;;19.83;5.03;;;-1.10;99.90;;;;;;5019622;28;20484;-77
2023/02/07 03:57:14;;;;;;;19.75;4.90;;;-1.00;99.90;;;;;;5039483;28;20029;-77
2023/02/07 03:59:39;;;;;;;14.38;4.50;;;-0.90;99.90;;;;;;5038545;28;20026;-77
2023/02/07 04:02:05;;;;;;;16.52;5.15;;;-1.00;99.90;;;;;;5038183;28;20028;-77
2023/02/07 04:04:30;;;;;;;18.42;4.25;;;-1.00;99.90;;;;;;5038155;28;20064;-77
2023/02/07 04:06:56;;;;;;;13.60;4.15;;;-1.00;99.90;;;;;;5037389;28;20388;-77
2023/02/07 04:09:22;;;;;;;14.45;4.53;;;-1.00;99.90;;;;;;5036796;28;20033;-77
2023/02/07 04:11:48;;;;;;;19.27;5.30;;;-1.10;99.90;;;;;;5035787;28;20126;-77
2023/02/07 04:14:14;;;;;;;18.15;5.15;;;-0.90;99.90;;;;;;5036065;28;20103;-77
2023/02/07 04:16:40;;;;;;;20.58;5.00;;;-1.20;99.90;;;;;;5035623;28;20480;-77
2023/02/07 04:19:05;;;;;;;16.42;5.05;;;-1.20;99.90;;;;;;5019783;28;20391;-77
2023/02/07 04:21:31;;;;;;;15.38;5.05;;;-1.20;99.90;;;;;;5037837;28;20032;-77
2023/02/07 04:23:57;;;;;;;18.02;4.53;;;-1.20;99.90;;;;;;5019935;28;20028;-77
2023/02/07 04:26:22;;;;;;;20.73;5.45;;;-1.20;99.90;;;;;;5037737;28;20487;-77
2023/02/07 04:28:48;;;;;;;19.85;5.45;;;-1.20;99.90;;;;;;5020479;28;20022;-77
2023/02/07 04:31:16;;;;;;;19.23;5.03;;;-1.20;99.90;;;;;;5037868;28;20033;-77
2023/02/07 04:33:42;;;;;;;20.20;5.57;;;-1.20;99.90;;;;;;5020067;28;20022;-77
2023/02/07 04:36:08;;;;;;;20.73;5.40;;;-1.20;99.90;;;;;;5020390;28;20567;-77
2023/02/07 04:38:34;;;;;;;15.65;4.85;;;-1.20;99.90;;;;;;5020567;28;20030;-77
2023/02/07 04:41:03;;;;;;;20.15;4.78;;;-1.20;99.90;;;;;;5037414;28;20029;-77
2023/02/07 04:43:29;;;;;;;21.13;4.82;;;-1.20;99.90;;;;;;5018606;28;20419;-77
2023/02/07 04:45:55;;;;;;;16.48;5.63;;;-1.20;99.90;;;;;;5018208;28;20018;-75
2023/02/07 04:48:23;;;;;;;18.98;6.00;;;-0.80;99.90;;;;;;5035803;28;20075;-77
2023/02/07 04:50:48;;;;;;;21.63;5.47;;;-1.20;99.90;;;;;;5035479;28;20029;-77
2023/02/07 04:53:16;;;;;;;21.88;6.35;;;-1.20;99.90;;;;;;5034908;28;20622;-76
2023/02/07 04:55:42;;;;;;;18.88;4.95;;;-1.10;99.90;;;;;;5016964;28;20491;-75
2023/02/07 04:58:08;;;;;;;20.17;5.90;;;-1.10;99.90;;;;;;5034852;28;20025;-76
2023/02/07 05:00:34;;;;;;;19.70;5.75;;;-1.10;99.90;;;;;;5016651;28;20044;-76
2023/02/07 05:03:00;;;;;;;17.67;5.38;;;-1.10;99.90;;;;;;5017510;28;20523;-76
2023/02/07 05:05:25;;;;;;;19.17;6.40;;;-1.20;99.90;;;;;;5015964;28;20105;-75
2023/02/07 05:07:51;;;;;;;21.02;6.47;;;-1.10;99.90;;;;;;5016588;28;20018;-77
2023/02/07 05:10:17;;;;;;;23.13;6.28;;;-1.10;99.90;;;;;;5016851;28;20496;-76
2023/02/07 05:12:42;;;;;;;17.73;6.35;;;-1.10;99.90;;;;;;5034392;28;20098;-76
2023/02/07 05:15:08;;;;;;;23.70;5.95;;;-1.10;99.90;;;;;;5034292;28;20018;-76
2023/02/07 05:17:34;;;;;;;17.08;6.20;;;-1.10;99.90;;;;;;5034708;28;20033;-76
2023/02/07 05:20:10;;;;;;;24.08;6.30;;;-1.10;99.90;;;;;;5016598;28;20082;-76
2023/02/07 05:22:35;;;;;;;14.77;5.90;;;-1.20;99.90;;;;;;5016532;28;20045;-75
2023/02/07 05:25:04;;;;;;;24.73;6.22;;;-1.20;99.90;;;;;;5034405;28;20017;-76
2023/02/07 05:27:29;;;;;;;12.00;4.00;;;-1.30;99.90;;;;;;5016714;28;20049;-76
2023/02/07 05:29:58;;;;;;;20.60;5.60;;;-1.20;99.90;;;;;;5016853;28;20028;-76
2023/02/07 05:35:11;;;;;;;20.70;6.15;;;-1.20;99.90;;;;;;5034191;28;20554;-75
2023/02/07 05:37:37;;;;;;;17.30;6.03;;;-1.20;99.90;;;;;;5033868;28;20072;-76
2023/02/07 05:40:03;;;;;;;28.50;8.82;;;-1.20;99.90;;;;;;5015727;28;20068;-76
2023/02/07 05:42:28;;;;;;;19.45;6.20;;;-1.10;99.90;;;;;;5033799;28;20071;-75
2023/02/07 05:44:54;;;;;;;20.60;7.00;;;-1.10;99.90;;;;;;5033751;28;20024;-75
2023/02/07 05:47:23;;;;;;;21.17;6.75;;;-1.20;99.90;;;;;;5033937;28;20028;-75
2023/02/07 05:49:48;;;;;;;32.70;6.50;;;-1.20;99.90;;;;;;5033963;28;20018;-76
2023/02/07 05:52:14;;;;;;;18.58;5.70;;;-1.20;99.90;;;;;;5015879;28;20020;-76
2023/02/07 05:54:40;;;;;;;24.55;7.55;;;-1.20;99.90;;;;;;5016565;28;20119;-76
2023/02/07 05:57:06;;;;;;;21.30;7.22;;;-1.20;99.90;;;;;;5034464;28;20018;-76
2023/02/07 05:59:32;;;;;;;25.77;6.50;;;-1.20;99.90;;;;;;5033280;28;20076;-76
2023/02/07 06:02:01;;;;;;;25.35;6.28;;;-2.20;99.90;;;;;;5015932;28;20388;-76
2023/02/07 06:04:27;;;;;;;20.63;6.22;;;-1.20;99.90;;;;;;5015839;28;20451;-76
2023/02/07 06:06:53;;;;;;;24.02;7.63;;;-1.20;99.90;;;;;;5016110;28;20060;-76
2023/02/07 06:09:20;;;;;;;19.20;5.70;;;-1.30;99.90;;;;;;5033445;28;20063;-76
2023/02/07 06:11:46;;;;;;;25.90;7.63;;;-1.30;99.90;;;;;;5015674;28;20029;-76
2023/02/07 06:14:11;;;;;;;21.15;7.07;;;-1.30;99.90;;;;;;5015863;28;20025;-75
2023/02/07 06:16:37;;;;;;;21.25;7.07;;;-1.40;99.90;;;;;;5033688;28;20030;-75
2023/02/07 06:19:03;;;;;;;25.73;7.72;;;-1.40;99.90;;;;;;5015768;28;20377;-75
2023/02/07 06:21:29;;;;;;;21.90;6.60;;;-1.40;99.90;;;;;;5015803;28;20034;-75
2023/02/07 06:23:55;;;;;;;27.15;6.55;;;-1.40;99.90;;;;;;5033230;28;20357;-75
2023/02/07 06:26:23;;;;;;;24.15;7.90;;;-1.30;99.90;;;;;;5015756;28;20013;-75
2023/02/07 06:28:49;;;;;;;27.08;7.88;;;-1.40;99.90;;;;;;5033717;28;20026;-75
2023/02/07 06:31:14;;;;;;;23.45;8.05;;;-0.70;99.90;;;;;;5033203;28;20075;-75
2023/02/07 06:33:42;;;;;;;20.75;6.75;;;-1.50;99.90;;;;;;5033288;28;20444;-76
2023/02/07 06:36:08;;;;;;;13.85;4.55;;;-1.50;99.90;;;;;;5015510;28;20061;-75
2023/02/07 06:38:34;;;;;;;20.52;7.05;;;-1.60;99.90;;;;;;5033144;28;20392;-75
2023/02/07 06:40:59;;;;;;;23.25;6.85;;;-1.60;99.90;;;;;;5033258;28;20030;-75
2023/02/07 06:43:25;;;;;;;24.05;7.15;;;-1.50;99.90;;;;;;5033132;28;20030;-76
2023/02/07 06:45:51;;;;;;;29.55;8.02;;;-1.50;99.90;;;;;;5015385;28;20028;-76
2023/02/07 06:48:16;;;;;;;23.85;7.38;;;-1.50;99.90;;;;;;5015435;28;20071;-77
2023/02/07 06:50:42;;;;;;;27.08;8.30;;;-1.50;99.90;;;;;;5033870;28;20086;-76
2023/02/07 06:53:07;;;;;;;25.23;7.85;;;-1.40;99.90;;;;;;5016457;28;20013;-77
2023/02/07 06:55:38;;;;;;;33.03;9.27;;;-1.30;99.90;;;;;;5033980;28;20092;-77
2023/02/07 06:58:05;;;;;;;29.00;8.43;;;-1.30;99.90;;;;;;5033910;28;20164;-76
2023/02/07 07:00:30;;;;;;;32.53;9.15;;;-1.20;99.90;;;;;;5033781;28;20021;-76
2023/02/07 07:02:56;;;;;;;36.58;8.73;;;-1.20;99.90;;;;;;5033963;28;20022;-77
2023/02/07 07:05:22;;;;;;;27.02;8.27;;;-1.30;99.90;;;;;;5016207;28;20112;-77
2023/02/07 07:07:48;;;;;;;30.30;8.18;;;-1.30;99.90;;;;;;5033600;28;20384;-77
2023/02/07 07:10:14;;;;;;;26.65;8.70;;;-1.30;99.90;;;;;;5021191;28;20057;-77
2023/02/07 07:12:39;;;;;;;24.23;9.23;;;-1.30;99.90;;;;;;5033289;28;20026;-77
2023/02/07 07:15:05;;;;;;;27.85;8.45;;;-1.30;99.90;;;;;;5033020;28;20025;-76
2023/02/07 07:17:31;;;;;;;26.63;7.68;;;-1.40;99.90;;;;;;5033719;28;20077;-76
2023/02/07 07:19:57;;;;;;;32.50;9.30;;;-1.40;99.90;;;;;;5032356;28;20057;-76
2023/02/07 07:22:24;;;;;;;25.17;8.50;;;-1.40;99.90;;;;;;5033564;28;20125;-77
2023/02/07 07:24:50;;;;;;;36.10;10.60;;;-1.40;99.90;;;;;;5032268;28;20456;-77
2023/02/07 07:27:15;;;;;;;31.42;8.77;;;-1.30;99.90;;;;;;5032370;28;20045;-76
2023/02/07 07:29:41;;;;;;;27.27;8.98;;;-1.30;99.90;;;;;;5035733;28;20108;-76
2023/02/07 07:32:10;;;;;;;33.15;9.18;;;-1.30;99.90;;;;;;5033335;28;20116;-77
2023/02/07 07:34:35;;;;;;;;;;;-1.30;99.90;;;;;;5036270;28;20053;-76
2023/02/07 07:37:01;;;;;;;29.67;8.82;;;-1.30;99.90;;;;;;5035738;28;19928;-77
2023/02/07 07:39:27;;;;;;;29.80;8.77;;;-1.20;99.90;;;;;;5035793;28;20071;-77
2023/02/07 07:41:52;;;;;;;31.55;8.73;;;-1.20;99.90;;;;;;5036193;28;20026;-77
2023/02/07 07:44:18;;;;;;;33.15;10.02;;;-1.20;99.90;;;;;;5035389;28;20029;-76
2023/02/07 07:46:43;;;;;;;28.27;9.05;;;-1.10;99.90;;;;;;5035419;28;20472;-76
2023/02/07 07:49:09;;;;;;;27.98;8.68;;;-1.10;99.90;;;;;;5036601;28;20034;-76
2023/02/07 07:51:35;;;;;;;25.85;9.85;;;-1.10;99.90;;;;;;5036374;28;20049;-77
2023/02/07 07:54:01;;;;;;;28.52;8.20;;;-1.10;99.90;;;;;;5036632;28;20025;-76
2023/02/07 07:56:28;;;;;;;25.38;8.90;;;-1.10;99.90;;;;;;5036167;28;20036;-76
2023/02/07 07:58:54;;;;;;;25.65;8.95;;;-1.00;99.90;;;;;;5035237;28;20108;-76
2023/02/07 08:01:20;;;;;;;31.92;8.70;;;-1.00;99.90;;;;;;5034727;28;20025;-77
2023/02/07 08:03:46;;;;;;;28.85;8.15;;;-1.00;99.90;;;;;;5036130;28;20380;-77
2023/02/07 08:06:14;;;;;;;27.38;9.25;;;-0.90;99.90;;;;;;5034619;28;20392;-77
2023/02/07 08:08:40;;;;;;;32.67;9.35;;;-0.80;99.90;;;;;;5034902;28;20384;-77
2023/02/07 08:11:08;;;;;;;35.88;10.82;;;-0.80;99.90;;;;;;5035558;28;20026;-77
2023/02/07 08:13:33;;;;;;;33.33;9.95;;;-0.80;99.90;;;;;;5034624;28;20038;-77
2023/02/07 08:16:00;;;;;;;30.38;9.15;;;-0.50;99.90;;;;;;5034897;28;20025;-76
2023/02/07 08:18:26;;;;;;;30.95;10.40;;;-0.40;99.90;;;;;;5034636;28;20017;-76
2023/02/07 08:20:52;;;;;;;32.28;10.07;;;-0.40;99.90;;;;;;5034391;28;20507;-77
2023/02/07 08:23:17;;;;;;;28.35;9.30;;;-0.30;99.90;;;;;;5036061;28;20105;-77
2023/02/07 08:25:45;;;;;;;32.70;10.25;;;-0.30;99.90;;;;;;5034600;28;20495;-77
2023/02/07 08:28:11;;;;;;;36.22;11.27;;;-0.20;99.90;;;;;;5035668;28;20104;-76
2023/02/07 08:30:37;;;;;;;31.15;10.43;;;-0.10;99.90;;;;;;5035459;28;20112;-77
2023/02/07 08:33:02;;;;;;;33.72;10.13;;;-0.10;99.90;;;;;;5035243;28;20100;-77
2023/02/07 08:35:28;;;;;;;32.75;10.00;;;-0.10;99.90;;;;;;5035028;28;20025;-78
2023/02/07 08:37:54;;;;;;;40.10;10.70;;;0.00;99.90;;;;;;5033560;28;20079;-78
2023/02/07 08:40:20;;;;;;;28.15;10.15;;;0.10;99.90;;;;;;5033630;28;20026;-78
2023/02/07 08:42:46;;;;;;;32.50;10.52;;;0.20;99.90;;;;;;5035214;28;20079;-78
2023/02/07 08:45:14;;;;;;;30.27;9.77;;;0.30;99.90;;;;;;5033926;28;20020;-78
2023/02/07 08:47:40;;;;;;;28.15;10.32;;;0.40;99.90;;;;;;5033969;28;20538;-78
2023/02/07 08:50:11;;;;;;;35.17;10.07;;;0.40;99.90;;;;;;5034949;28;20021;-78
2023/02/07 08:52:36;;;;;;;28.92;9.60;;;0.50;99.90;;;;;;5035050;28;20067;-78
2023/02/07 08:55:02;;;;;;;27.25;10.30;;;0.60;99.90;;;;;;5033697;28;20480;-78
2023/02/07 08:57:28;;;;;;;32.72;9.57;;;0.60;99.90;;;;;;5033927;28;20538;-78
2023/02/07 08:59:54;;;;;;;29.08;9.80;;;0.70;99.90;;;;;;5033673;28;20022;-78
2023/02/07 09:02:20;;;;;;;31.63;10.00;;;0.70;99.90;;;;;;5033552;28;20071;-78
2023/02/07 09:04:46;;;;;;;23.70;8.68;;;0.80;99.90;;;;;;5033617;28;20100;-78
2023/02/07 09:07:12;;;;;;;31.67;9.38;;;0.90;99.90;;;;;;5033775;28;20417;-79
2023/02/07 09:09:38;;;;;;;30.98;9.20;;;1.00;99.90;;;;;;5034672;28;20024;-78
2023/02/07 09:12:04;;;;;;;31.42;9.05;;;1.00;99.90;;;;;;5033240;28;20010;-78
2023/02/07 09:14:29;;;;;;;26.05;8.55;;;1.10;99.90;;;;;;5033225;28;20036;-78
2023/02/07 09:16:55;;;;;;;27.38;9.15;;;1.10;99.90;;;;;;5033197;28;20472;-78
2023/02/07 09:19:21;;;;;;;21.67;7.55;;;1.10;99.90;;;;;;5033187;28;20380;-78
2023/02/07 09:21:46;;;;;;;26.75;8.68;;;1.20;99.90;;;;;;5033042;28;20458;-78
2023/02/07 09:24:12;;;;;;;23.02;7.70;;;1.30;99.90;;;;;;5034635;28;20018;-78
2023/02/07 09:26:38;;;;;;;25.20;7.82;;;1.50;99.90;;;;;;5033178;28;20025;-78
2023/02/07 09:29:04;;;;;;;22.13;7.57;;;1.50;99.90;;;;;;5033059;28;20017;-78
2023/02/07 09:31:31;;;;;;;26.05;8.30;;;1.50;99.90;;;;;;5034267;28;20520;-78
2023/02/07 09:33:56;;;;;;;26.42;7.63;;;1.60;99.90;;;;;;5033002;28;20095;-78
2023/02/07 09:36:25;;;;;;;21.70;7.93;;;1.60;99.90;;;;;;5032897;28;20025;-78
2023/02/07 09:38:51;;;;;;;19.60;6.70;;;2.00;99.90;;;;;;5033078;28;20025;-78
2023/02/07 09:41:35;;;;;;;20.75;6.57;;;1.70;99.90;;;;;;5034041;28;20064;-78
2023/02/07 09:44:26;;;;;;;22.00;8.43;;;1.70;99.90;;;;;;5034203;28;20025;-78
2023/02/07 09:47:10;;;;;;;16.90;6.10;;;1.90;99.90;;;;;;5033013;28;20388;-78
2023/02/07 09:49:50;;;;;;;25.42;7.93;;;1.90;99.90;;;;;;5032759;28;20032;-78
2023/02/07 09:52:21;;;;;;;21.95;7.10;;;2.00;99.90;;;;;;5032511;28;20072;-78
2023/02/07 09:54:50;;;;;;;22.73;7.00;;;2.10;99.90;;;;;;5032790;28;20090;-78
2023/02/07 09:57:21;;;;;;;20.52;7.88;;;2.10;99.90;;;;;;5032693;28;20071;-78
2023/02/07 09:59:51;;;;;;;18.58;7.10;;;2.10;99.90;;;;;;5033863;28;20083;-79
2023/02/07 10:02:24;;;;;;;22.25;8.18;;;2.20;99.90;;;;;;5034121;28;20151;-78
2023/02/07 10:04:54;;;;;;;20.88;7.00;;;2.20;99.90;;;;;;5034105;28;20021;-78
2023/02/07 10:07:19;;;;;;;22.80;7.70;;;3.60;99.90;;;;;;5033027;28;20025;-78
2023/02/07 10:09:46;;;;;;;17.67;6.80;;;2.30;99.90;;;;;;5032822;28;20029;-78
2023/02/07 10:12:37;;;;;;;20.08;6.80;;;2.40;99.90;;;;;;5033115;28;20558;-78
2023/02/07 10:15:13;;;;;;;16.42;7.10;;;2.40;99.90;;;;;;5032923;28;20079;-78
2023/02/07 10:18:07;;;;;;;15.85;6.20;;;2.50;99.90;;;;;;5033148;28;20026;-78
2023/02/07 10:20:40;;;;;;;17.90;6.47;;;2.50;99.90;;;;;;5034321;28;20029;-78
2023/02/07 10:23:16;;;;;;;15.60;5.60;;;2.60;99.90;;;;;;5032672;28;20175;-78
2023/02/07 10:26:01;;;;;;;20.00;5.97;;;2.70;99.90;;;;;;5034272;28;20047;-78
2023/02/07 10:28:57;;;;;;;21.08;6.43;;;2.80;99.90;;;;;;5032663;28;20523;-78
2023/02/07 10:31:24;;;;;;;17.23;5.72;;;2.80;99.90;;;;;;5032667;28;20036;-78
2023/02/07 10:34:01;;;;;;;12.45;5.18;;;2.90;99.90;;;;;;5032572;28;20029;-78
2023/02/07 10:36:33;;;;;;;15.32;5.45;;;2.90;99.90;;;;;;5032677;28;20144;-78
2023/02/07 10:39:14;;;;;;;13.80;5.28;;;3.00;99.90;;;;;;5033802;28;20021;-78
2023/02/07 10:41:41;;;;;;;16.95;4.93;;;3.10;99.90;;;;;;5034058;28;20026;-78
2023/02/07 10:44:18;;;;;;;16.02;5.30;;;3.20;99.90;;;;;;5032850;28;20476;-78
2023/02/07 10:46:49;;;;;;;15.18;4.38;;;3.30;99.90;;;;;;5032522;28;20021;-78
2023/02/07 10:49:24;;;;;;;12.82;5.40;;;3.30;99.90;;;;;;5032410;28;20024;-78
2023/02/07 10:51:52;;;;;;;11.30;4.45;;;3.30;99.90;;;;;;5033874;28;20108;-78
2023/02/07 10:54:23;;;;;;;13.88;4.28;;;3.40;99.90;;;;;;5032406;28;20025;-78
2023/02/07 10:56:56;;;;;;;11.38;3.85;;;3.40;99.90;;;;;;5033878;28;20489;-78
2023/02/07 10:59:36;;;;;;;12.43;4.50;;;3.40;99.90;;;;;;5032678;28;20034;-78
2023/02/07 11:02:27;;;;;;;9.45;3.78;;;3.40;99.90;;;;;;5032257;28;20021;-78
2023/02/07 11:04:55;;;;;;;10.20;3.25;;;3.50;99.90;;;;;;5036461;28;20032;-78
2023/02/07 11:07:21;;;;;;;9.88;3.00;;;3.60;99.90;;;;;;5036597;28;20389;-78
2023/02/07 11:09:47;;;;;;;8.90;3.30;;;4.20;99.90;;;;;;5036989;28;20026;-78
2023/02/07 11:12:18;;;;;;;8.95;3.08;;;3.80;99.90;;;;;;5036315;28;20032;-78
2023/02/07 11:15:02;;;;;;;9.20;3.33;;;3.80;99.90;;;;;;5036729;28;20025;-78
2023/02/07 11:17:28;;;;;;;7.22;3.38;;;3.80;99.90;;;;;;5035245;28;20148;-78
2023/02/07 11:19:54;;;;;;;10.77;3.83;;;3.90;99.90;;;;;;5035584;28;20400;-78
2023/02/07 11:22:23;;;;;;;10.48;3.33;;;4.00;99.90;;;;;;5035130;28;20045;-78
2023/02/07 11:24:52;;;;;;;9.48;3.03;;;4.00;99.90;;;;;;5035322;28;20477;-78
2023/02/07 11:27:22;;;;;;;10.57;2.95;;;4.10;99.90;;;;;;5036688;28;20026;-78
2023/02/07 11:29:52;;;;;;;7.15;2.15;;;4.10;99.90;;;;;;5036580;28;20029;-78
2023/02/07 11:32:18;;;;;;;7.35;2.97;;;4.10;99.90;;;;;;5036424;28;20109;-78
2023/02/07 11:34:56;;;;;;;8.90;3.28;;;4.10;99.90;;;;;;5036345;28;20452;-78
2023/02/07 11:37:33;;;;;;;8.55;2.90;;;4.10;99.90;;;;;;5035093;28;20049;-78
2023/02/07 11:40:23;;;;;;;11.82;2.72;;;4.20;99.90;;;;;;5036230;28;20025;-78
2023/02/07 11:42:57;;;;;;;10.60;3.10;;;4.30;99.90;;;;;;5034993;28;20020;-78
2023/02/07 11:45:23;;;;;;;6.57;2.15;;;4.40;99.90;;;;;;5036313;28;20052;-78
2023/02/07 11:47:54;;;;;;;5.35;1.88;;;4.50;99.90;;;;;;5036316;28;20443;-78
2023/02/07 11:50:24;;;;;;;6.28;2.47;;;4.50;99.90;;;;;;5036547;28;20028;-78
2023/02/07 11:52:53;;;;;;;6.13;2.05;;;4.60;99.90;;;;;;5035034;28;20480;-78
2023/02/07 11:55:35;;;;;;;7.82;2.15;;;4.60;99.90;;;;;;5034743;28;20048;-78
2023/02/07 11:58:10;;;;;;;6.05;2.28;;;4.70;99.90;;;;;;5034859;28;20103;-78
2023/02/07 12:00:37;;;;;;;7.63;2.72;;;4.80;99.90;;;;;;5034589;28;20079;-78
2023/02/07 12:03:07;;;;;;;7.43;2.40;;;5.00;99.90;;;;;;5036137;28;20488;-78
2023/02/07 12:05:45;;;;;;;5.00;1.88;;;5.20;99.90;;;;;;5035381;28;20474;-78
2023/02/07 12:08:17;;;;;;;9.32;2.20;;;5.30;99.90;;;;;;5034587;28;20437;-78
2023/02/07 12:10:47;;;;;;;6.88;2.88;;;5.50;99.90;;;;;;5034413;28;20037;-78
2023/02/07 12:13:18;;;;;;;7.68;2.50;;;5.50;99.90;;;;;;5034220;28;20029;-78
2023/02/07 12:16:02;;;;;;;6.25;2.58;;;5.60;99.90;;;;;;5035871;28;20025;-78
2023/02/07 12:18:32;;;;;;;5.55;2.33;;;5.70;99.90;;;;;;5034320;28;20021;-78
2023/02/07 12:21:23;;;;;;;7.50;2.53;;;5.70;99.90;;;;;;5034154;28;20084;-78
2023/02/07 12:24:16;;;;;;;7.57;2.90;;;5.70;99.90;;;;;;5030328;28;20045;-78
2023/02/07 12:26:50;;;;;;;8.00;2.25;;;5.80;99.90;;;;;;5035525;28;20393;-78
2023/02/07 12:29:55;;;;;;;7.90;2.67;;;5.60;99.90;;;;;;5034145;28;20021;-78
2023/02/07 12:32:48;;;;;;;7.38;2.53;;;5.60;99.90;;;;;;5034917;28;20040;-78
2023/02/07 12:35:32;;;;;;;7.93;2.05;;;5.80;99.90;;;;;;5033978;28;20087;-78
2023/02/07 12:38:16;;;;;;;5.60;2.05;;;6.00;99.90;;;;;;5034063;28;20060;-78
2023/02/07 12:41:20;;;;;;;7.20;2.13;;;6.20;99.90;;;;;;5033994;28;20025;-78
2023/02/07 12:44:11;;;;;;;10.52;3.08;;;6.40;99.90;;;;;;5033897;28;20030;-78
2023/02/07 12:47:17;;;;;;;5.22;2.28;;;6.60;99.90;;;;;;5030241;28;20440;-78
2023/02/07 12:50:12;;;;;;;8.40;3.25;;;6.70;99.90;;;;;;4990603;28;20034;-78
2023/02/07 12:52:53;;;;;;;7.10;2.10;;;6.80;99.90;;;;;;5033880;28;20075;-78
2023/02/07 12:55:35;;;;;;;6.90;2.67;;;6.90;99.90;;;;;;5034894;28;20101;-78
2023/02/07 12:58:28;;;;;;;4.47;1.90;;;7.00;99.90;;;;;;5034926;28;20035;-78
2023/02/07 13:01:07;;;;;;;6.28;2.33;;;7.30;99.90;;;;;;5034524;28;20392;-78
2023/02/07 13:03:46;;;;;;;5.65;2.35;;;7.50;99.90;;;;;;5033608;28;20195;-78
2023/02/07 13:06:38;;;;;;;6.55;2.03;;;7.60;99.90;;;;;;5033388;28;20026;-78